旭川 の空港の天気 - METARとTAF

旭川空港 ( RJEC / AKJ ) - 北海道旭川市
飛行場実況気象(Metar)
観測時間02/26 12:28 JST (02/26 03:28 UTC)
風向・風速北東 2m/s
視程3200m
天気現象弱いしゅう雪
少しの雲 雲底高度 90m
全天の4割程度の雲 雲底高度 370m
全天の8割程度の雲 雲底高度 760m
気温-6℃
湿度86%
気圧1019hPa
METARRJEC 260328Z 05003KT 360V080 3200 -SHSN FEW003 SCT012 BKN025 M06/M08 Q1019 RMK 1ST003 3ST012 6CU025 A3011
過去の天気等 Google飛行場航空写真 Wunderground天気予報

過去48時間のMETAR

飛行場予報(TAF)
発表時間: 2/26 12:07 JST (2/26 03:07 UTC)
予報対象時間: 26日12時 JST ~ 27日15時 JST
風向・風速北 5m/s
視程10km以上
少しの雲 雲底高度 240m
全天の8割程度の雲 雲底高度 610m
26日12時 JST ~ 26日15時 JST に一時的に
視程700m
天気現象しゅう雪
全天を覆う雲 鉛直視程 210m
26日18時 JST ~ 26日20時 JST に徐々に
風向・風速南 3m/s
26日20時 JST ~ 26日24時 JST に一時的に
視程4,000m
天気現象弱いしゅう雪
27日0時 JST ~ 27日3時 JST に徐々に
風向・風速北 3m/s
27日0時 JST ~ 27日9時 JST に一時的に
視程1,500m
天気現象もや
少しの雲 雲底高度 60m
全天の8割程度の雲 雲底高度 150m
TAF AMD RJEC 260307Z 2603/2706 36009KT 9999 FEW008 BKN020
TEMPO 2603/2606 0700 SHSN VV007
BECMG 2609/2611 17005KT
TEMPO 2611/2615 4000 -SHSN
BECMG 2615/2618 35005KT
TEMPO 2615/2700 1500 BR FEW002 BKN005
日本の空港のMETAR・TAFへのリンク

RJTT 東京国際空港
RJAA 新東京国際空港
RJBB 関西国際空港
RJOO 大阪空港
RJGG 中部国際空港
RJCC 新千歳空港
RJFF 福岡空港
ROAH 那覇空港


RJEC 旭川空港
RJCH 函館空港
RJCK 釧路空港
RJCM 女満別空港
RJCB 帯広空港
RJSA 青森空港
RJSS 仙台空港
RJSK 秋田空港
RJSF 福島空港
RJAH 茨城空港
RJSN 新潟空港
RJNT 富山空港
RJNK 小松飛行場
RJNS 静岡空港
RJOH 美保飛行場
RJOC 出雲空港
RJOB 岡山空港
RJOA 広島空港
RJOI 岩国飛行場
RJOT 高松空港
RJOM 松山空港
RJOK 高知空港
RJFR 北九州空港
RJFT 熊本空港
RJFU 長崎空港
RJFS 佐賀空港
RJFO 大分空港
RJFM 宮崎空港
RJFK 鹿児島空港
ROIG 石垣島空港
RJTY 横田飛行場
ROTM 普天間飛行場
RODN 嘉手納飛行場